^^
Datos históricos de la estación: Murcia-Puente Tocinos
Diario Informe para Marzo 20, 2017 Unidades:  Métrico    Inglés   Ambas
« Anterior Día
Siguiente Día »
Diario Semanal Mensual Anual Configurable
  Máximo: Mínimo: Media:
Temperatura: 23.5 °C 12.1 °C 16.8 °C
Punto de rocio: 11.6 °C 4.3 °C 7.5 °C
Humedad: 74% 31% 57%
Velocidad viento: 12.2km/h 0.0km/h 4.9km/h
Racha viento: 20.4km/h - -
Viento- - Sur
Presión: 1013.8 hPa 1010.7 hPa -
Precipitación: 0.0 mm    
Historical Graphs
 
 
Tabla de datos para Marzo 20, 2017
Hora Temperatura Punto de rocio Presión Viento Velocidad viento Racha viento Humedad Intensidad lluvia(por hora) Nubes
00:04 14.7 °C 8.2 °C 1013.8 hPa NE 1.6 km/h 6.4 km/h 65% 0.0 mm CLR
00:05 14.7 °C 8.2 °C 1013.8 hPa ENE 2.3 km/h 5.6 km/h 65% 0.0 mm CLR
00:10 14.5 °C 7.8 °C 1013.8 hPa ESE 3.2 km/h 5.6 km/h 64% 0.0 mm CLR
00:15 14.4 °C 7.2 °C 1013.8 hPa ESE 3.2 km/h 7.4 km/h 62% 0.0 mm CLR
00:20 14.3 °C 7.1 °C 1013.4 hPa ENE 3.9 km/h 4.7 km/h 62% 0.0 mm CLR
00:25 14.3 °C 7.6 °C 1013.4 hPa East 3.9 km/h 3.9 km/h 64% 0.0 mm CLR
00:30 14.3 °C 7.8 °C 1013.4 hPa East 3.2 km/h 3.7 km/h 65% 0.0 mm CLR
00:35 14.3 °C 7.8 °C 1013.4 hPa East 3.2 km/h 3.7 km/h 65% 0.0 mm CLR
00:40 14.2 °C 7.0 °C 1013.4 hPa East 2.9 km/h 3.9 km/h 62% 0.0 mm CLR
00:45 14.2 °C 6.6 °C 1013.4 hPa East 2.9 km/h 3.7 km/h 60% 0.0 mm CLR
00:50 14.1 °C 6.2 °C 1013.4 hPa East 2.9 km/h 3.7 km/h 59% 0.0 mm CLR
00:55 14.1 °C 6.2 °C 1013.4 hPa East 2.9 km/h 3.9 km/h 59% 0.0 mm CLR
01:00 13.9 °C 6.0 °C 1013.4 hPa East 2.3 km/h 3.9 km/h 59% 0.0 mm CLR
01:05 13.9 °C 6.0 °C 1013.1 hPa East 2.3 km/h 3.7 km/h 59% 0.0 mm CLR
01:10 13.8 °C 5.9 °C 1013.1 hPa East 2.9 km/h 3.7 km/h 59% 0.0 mm CLR
01:15 13.7 °C 6.1 °C 1013.1 hPa East 2.9 km/h 3.7 km/h 60% 0.0 mm CLR
01:20 13.7 °C 6.1 °C 1013.1 hPa ESE 2.9 km/h 3.9 km/h 60% 0.0 mm CLR
01:25 13.7 °C 6.1 °C 1013.1 hPa ESE 2.9 km/h 3.7 km/h 60% 0.0 mm CLR
01:30 13.7 °C 6.6 °C 1013.1 hPa ESE 2.9 km/h   62% 0.0 mm CLR
01:35 13.6 °C 6.9 °C 1013.1 hPa NNE 2.9 km/h 3.9 km/h 64% 0.0 mm CLR
01:40 13.4 °C 6.5 °C 1013.1 hPa Calm   4.7 km/h 63% 0.0 mm CLR
01:45 13.2 °C 6.3 °C 1013.1 hPa Calm   3.9 km/h 63% 0.0 mm CLR
01:50 13.0 °C 5.9 °C 1013.1 hPa NNW 3.2 km/h 5.6 km/h 62% 0.0 mm CLR
01:55 12.8 °C 6.4 °C 1013.1 hPa WNW 3.2 km/h 3.9 km/h 65% 0.0 mm CLR
02:00 12.7 °C 6.7 °C 1013.1 hPa NW 3.2 km/h 3.7 km/h 67% 0.0 mm CLR
02:05 12.6 °C 6.8 °C 1013.1 hPa NW 3.2 km/h 3.7 km/h 68% 0.0 mm CLR
02:10 12.5 °C 7.2 °C 1013.1 hPa NE 2.9 km/h 3.7 km/h 70% 0.0 mm CLR
02:15 12.5 °C 7.4 °C 1013.1 hPa NE 2.9 km/h 3.7 km/h 71% 0.0 mm CLR
02:20 12.5 °C 7.6 °C 1013.1 hPa Calm   3.7 km/h 72% 0.0 mm CLR
02:25 12.6 °C 7.3 °C 1013.1 hPa Calm   3.7 km/h 70% 0.0 mm CLR
02:30 12.6 °C 6.8 °C 1013.1 hPa East 2.3 km/h 3.9 km/h 68% 0.0 mm CLR
02:35 12.6 °C 6.4 °C 1012.8 hPa East 2.3 km/h 3.7 km/h 66% 0.0 mm CLR
02:40 12.6 °C 6.4 °C 1012.8 hPa ESE 2.9 km/h 5.6 km/h 66% 0.0 mm CLR
02:45 12.6 °C 6.6 °C 1012.8 hPa ESE 2.9 km/h 5.6 km/h 67% 0.0 mm CLR
02:50 12.6 °C 6.6 °C 1012.8 hPa ESE 3.2 km/h 5.6 km/h 67% 0.0 mm CLR
02:55 12.6 °C 6.6 °C 1012.8 hPa ESE 3.2 km/h 3.7 km/h 67% 0.0 mm CLR
03:00 12.6 °C 6.6 °C 1012.8 hPa SE 2.9 km/h 4.7 km/h 67% 0.0 mm CLR
03:05 12.6 °C 6.6 °C 1012.8 hPa SE 2.9 km/h 3.7 km/h 67% 0.0 mm CLR
03:10 12.6 °C 6.8 °C 1012.8 hPa SE 3.2 km/h 3.9 km/h 68% 0.0 mm CLR
03:15 12.6 °C 6.8 °C 1012.8 hPa SE 3.2 km/h 5.6 km/h 68% 0.0 mm CLR
03:20 12.6 °C 7.1 °C 1012.8 hPa South 2.9 km/h 6.4 km/h 69% 0.0 mm CLR
03:25 12.6 °C 7.1 °C 1012.8 hPa South 2.9 km/h 5.6 km/h 69% 0.0 mm CLR
03:30 12.6 °C 7.1 °C 1012.8 hPa SSE 3.9 km/h 7.4 km/h 69% 0.0 mm CLR
03:35 12.7 °C 7.4 °C 1012.4 hPa South 3.9 km/h 7.4 km/h 70% 0.0 mm CLR
03:40 12.7 °C 7.4 °C 1012.4 hPa SSW 4.7 km/h 7.4 km/h 70% 0.0 mm CLR
03:45 12.8 °C 7.4 °C 1012.4 hPa WSW 4.7 km/h 7.4 km/h 70% 0.0 mm CLR
03:50 12.8 °C 7.3 °C 1012.4 hPa WSW 4.7 km/h 5.8 km/h 69% 0.0 mm CLR
03:55 12.9 °C 7.3 °C 1012.4 hPa West 4.7 km/h 4.7 km/h 69% 0.0 mm CLR
04:00 12.8 °C 7.4 °C 1012.4 hPa WNW 3.9 km/h 5.8 km/h 70% 0.0 mm CLR
04:05 12.7 °C 7.6 °C 1012.4 hPa West 3.9 km/h 3.9 km/h 71% 0.0 mm CLR
04:10 12.7 °C 7.6 °C 1012.4 hPa West 3.2 km/h 3.9 km/h 71% 0.0 mm CLR
04:15 12.6 °C 7.7 °C 1012.4 hPa WNW 3.2 km/h 5.6 km/h 72% 0.0 mm CLR
04:20 12.5 °C 7.6 °C 1012.1 hPa WNW 2.9 km/h 3.9 km/h 72% 0.0 mm CLR
04:25 12.4 °C 7.9 °C 1012.1 hPa NW 2.9 km/h 3.7 km/h 74% 0.0 mm CLR
04:30 12.4 °C 7.9 °C 1012.1 hPa NW 2.9 km/h 2.9 km/h 74% 0.0 mm CLR
04:35 12.4 °C 7.7 °C 1012.4 hPa South 2.9 km/h 2.9 km/h 73% 0.0 mm CLR
04:40 12.3 °C 7.4 °C 1012.4 hPa Calm   5.6 km/h 72% 0.0 mm CLR
04:45 12.2 °C 7.3 °C 1012.4 hPa Calm   3.9 km/h 72% 0.0 mm CLR
04:50 12.2 °C 6.9 °C 1012.1 hPa SE 2.9 km/h 5.6 km/h 70% 0.0 mm CLR
04:55 12.1 °C 6.4 °C 1012.1 hPa SE 2.9 km/h 5.6 km/h 68% 0.0 mm CLR
05:00 12.1 °C 6.6 °C 1012.1 hPa SSE 3.2 km/h 5.6 km/h 69% 0.0 mm CLR
05:05 12.1 °C 6.6 °C 1012.4 hPa South 3.2 km/h 3.9 km/h 69% 0.0 mm CLR
05:10 12.1 °C 6.4 °C 1012.4 hPa SSE 3.9 km/h 4.7 km/h 68% 0.0 mm CLR
05:15 12.1 °C 6.4 °C 1012.4 hPa SSE 3.9 km/h 3.9 km/h 68% 0.0 mm CLR
05:20 12.2 °C 6.4 °C 1012.4 hPa South 3.2 km/h 7.6 km/h 68% 0.0 mm CLR
05:25 12.3 °C 6.6 °C 1012.4 hPa SSW 3.2 km/h 7.4 km/h 68% 0.0 mm CLR
05:30 12.3 °C 6.8 °C 1012.4 hPa South 4.7 km/h 5.6 km/h 69% 0.0 mm CLR
05:35 12.3 °C 6.6 °C 1012.4 hPa SSW 4.7 km/h 7.4 km/h 68% 0.0 mm CLR
05:40 12.4 °C 6.7 °C 1012.4 hPa SW 3.9 km/h 5.6 km/h 68% 0.0 mm CLR
05:46 12.5 °C 6.6 °C 1012.4 hPa SSW 3.9 km/h 5.6 km/h 67% 0.0 mm CLR
05:51 12.5 °C 6.6 °C 1012.8 hPa South 3.9 km/h 5.6 km/h 67% 0.0 mm CLR
05:56 12.6 °C 6.6 °C 1012.8 hPa SSE 3.9 km/h 3.9 km/h 67% 0.0 mm CLR
06:01 12.5 °C 6.8 °C 1012.8 hPa SSE 3.2 km/h 4.7 km/h 68% 0.0 mm CLR
06:06 12.5 °C 6.6 °C 1012.8 hPa SSE 3.2 km/h 7.4 km/h 67% 0.0 mm CLR
06:11 12.4 °C 6.4 °C 1012.8 hPa South 3.2 km/h 5.6 km/h 67% 0.0 mm CLR
06:16 12.4 °C 6.2 °C 1012.8 hPa South 3.2 km/h 7.4 km/h 66% 0.0 mm CLR
06:21 12.4 °C 6.4 °C 1012.8 hPa SSE 4.7 km/h 6.4 km/h 67% 0.0 mm CLR
06:26 12.3 °C 6.1 °C 1012.8 hPa South 4.7 km/h 7.4 km/h 66% 0.0 mm CLR
06:31 12.4 °C 6.7 °C 1012.8 hPa ESE 3.9 km/h 5.6 km/h 68% 0.0 mm CLR
06:36 12.3 °C 6.8 °C 1012.8 hPa South 3.9 km/h 7.4 km/h 69% 0.0 mm CLR
06:41 12.2 °C 6.7 °C 1012.8 hPa SSE 3.9 km/h 7.4 km/h 69% 0.0 mm CLR
06:46 12.1 °C 6.6 °C 1012.8 hPa South 3.9 km/h 5.6 km/h 69% 0.0 mm CLR
06:51 12.1 °C 6.6 °C 1012.8 hPa WSW 5.0 km/h 7.4 km/h 69% 0.0 mm CLR
06:56 12.1 °C 6.8 °C 1012.8 hPa SW 5.0 km/h 5.6 km/h 70% 0.0 mm CLR
07:01 12.2 °C 6.9 °C 1012.8 hPa West 4.7 km/h 4.7 km/h 70% 0.0 mm CLR
07:06 12.3 °C 7.2 °C 1012.8 hPa WSW 4.7 km/h 4.7 km/h 71% 0.0 mm CLR
07:11 12.3 °C 7.2 °C 1012.8 hPa WSW 2.3 km/h 3.7 km/h 71% 0.0 mm CLR
07:16 12.3 °C 7.2 °C 1012.8 hPa ESE 2.3 km/h 5.6 km/h 71% 0.0 mm CLR
07:21 12.3 °C 7.2 °C 1012.8 hPa ESE 2.9 km/h 3.9 km/h 71% 0.0 mm CLR
07:26 12.3 °C 7.0 °C 1012.8 hPa WSW 2.9 km/h 3.7 km/h 70% 0.0 mm CLR
07:31 12.2 °C 6.9 °C 1012.8 hPa SSW 3.2 km/h 7.4 km/h 70% 0.0 mm CLR
07:32 12.2 °C 6.9 °C 1012.8 hPa SSW 3.2 km/h 7.4 km/h 70% 0.0 mm CLR
07:37 12.3 °C 7.0 °C 1013.1 hPa ESE 4.7 km/h 5.0 km/h 70% 0.0 mm CLR
07:42 12.3 °C 7.0 °C 1013.1 hPa South 4.7 km/h 4.7 km/h 70% 0.0 mm CLR
07:47 12.3 °C 6.8 °C 1013.1 hPa SW 3.9 km/h 7.6 km/h 69% 0.0 mm CLR
07:52 12.3 °C 6.6 °C 1013.1 hPa SSW 3.9 km/h 7.6 km/h 68% 0.0 mm CLR
07:57 12.4 °C 6.7 °C 1013.1 hPa SSE 5.0 km/h 7.6 km/h 68% 0.0 mm CLR
08:02 12.4 °C 6.9 °C 1013.1 hPa South 5.0 km/h 7.4 km/h 69% 0.0 mm CLR
08:07 12.5 °C 6.9 °C 1013.1 hPa SSE 5.0 km/h 7.4 km/h 69% 0.0 mm CLR
08:12 12.6 °C 6.8 °C 1013.1 hPa SSW 5.0 km/h 5.0 km/h 68% 0.0 mm CLR
08:17 12.6 °C 6.6 °C 1013.1 hPa South 3.9 km/h 4.7 km/h 67% 0.0 mm CLR
08:22 12.7 °C 6.7 °C 1013.1 hPa SSW 3.9 km/h 7.4 km/h 67% 0.0 mm CLR
08:27 12.8 °C 6.8 °C 1013.1 hPa SSW 4.7 km/h 5.6 km/h 67% 0.0 mm CLR
08:32 12.8 °C 6.8 °C 1013.1 hPa SSE 4.7 km/h 5.6 km/h 67% 0.0 mm CLR
08:37 12.9 °C 6.9 °C 1013.4 hPa SSW 3.9 km/h 4.7 km/h 67% 0.0 mm CLR
08:38 12.9 °C 6.9 °C 1013.4 hPa SSW 3.9 km/h 4.7 km/h 67% 0.0 mm CLR
08:43 13.1 °C 7.3 °C 1013.4 hPa WSW 3.9 km/h 5.6 km/h 68% 0.0 mm CLR
08:48 13.2 °C 7.2 °C 1013.4 hPa SSW 3.9 km/h 5.6 km/h 67% 0.0 mm CLR
08:53 13.2 °C 7.2 °C 1013.4 hPa SE 3.9 km/h 5.8 km/h 67% 0.0 mm CLR
08:58 13.4 °C 7.2 °C 1013.4 hPa South 3.9 km/h 5.8 km/h 66% 0.0 mm CLR
09:03 13.4 °C 7.2 °C 1013.4 hPa SE 3.9 km/h 7.4 km/h 66% 0.0 mm CLR
09:08 13.5 °C 7.3 °C 1013.4 hPa SSE 4.7 km/h 7.4 km/h 66% 0.0 mm CLR
09:13 13.3 °C 7.5 °C 1013.4 hPa SSE 4.7 km/h 7.4 km/h 68% 0.0 mm CLR
09:18 13.3 °C 7.5 °C 1013.4 hPa South 5.8 km/h 7.4 km/h 68% 0.0 mm CLR
09:23 13.4 °C 7.6 °C 1013.4 hPa South 5.8 km/h 7.4 km/h 68% 0.0 mm CLR
09:28 13.6 °C 7.8 °C 1013.4 hPa South 4.7 km/h 5.6 km/h 68% 0.0 mm CLR
09:33 13.8 °C 7.8 °C 1013.4 hPa South 4.7 km/h 8.4 km/h 67% 0.0 mm CLR
09:38 13.9 °C 7.9 °C 1013.8 hPa SSW 5.0 km/h 9.3 km/h 67% 0.0 mm CLR
09:43 14.1 °C 7.8 °C 1013.8 hPa West 5.0 km/h 5.6 km/h 66% 0.0 mm CLR
09:48 14.2 °C 7.7 °C 1013.8 hPa SSW 5.8 km/h 7.4 km/h 65% 0.0 mm CLR
09:53 14.4 °C 7.9 °C 1013.8 hPa SW 5.8 km/h 5.8 km/h 65% 0.0 mm CLR
09:58 14.5 °C 8.0 °C 1013.8 hPa SW 4.7 km/h 7.4 km/h 65% 0.0 mm CLR
10:03 14.7 °C 7.9 °C 1013.8 hPa WSW 4.7 km/h 7.4 km/h 64% 0.0 mm CLR
10:08 14.9 °C 8.4 °C 1013.8 hPa SSW 3.9 km/h 7.6 km/h 65% 0.0 mm CLR
10:13 14.9 °C 7.9 °C 1013.8 hPa South 3.9 km/h 9.3 km/h 63% 0.0 mm CLR
10:18 14.9 °C 8.2 °C 1013.8 hPa South 6.4 km/h 9.3 km/h 64% 0.0 mm CLR
10:23 15.0 °C 8.0 °C 1013.8 hPa SSW 6.4 km/h 9.3 km/h 63% 0.0 mm CLR
10:28 15.2 °C 8.2 °C 1013.8 hPa SE 5.8 km/h 9.3 km/h 63% 0.0 mm CLR
10:33 15.3 °C 7.8 °C 1013.8 hPa SSW 5.8 km/h 9.3 km/h 61% 0.0 mm CLR
10:38 15.4 °C 7.7 °C 1013.8 hPa SSW 5.8 km/h 11.1 km/h 60% 0.0 mm CLR
10:43 15.4 °C 6.9 °C 1013.8 hPa South 5.8 km/h 11.1 km/h 57% 0.0 mm CLR
10:48 15.4 °C 6.9 °C 1013.8 hPa South 6.9 km/h 11.1 km/h 57% 0.0 mm CLR
10:53 15.6 °C 7.3 °C 1013.8 hPa WSW 6.9 km/h 7.4 km/h 58% 0.0 mm CLR
10:58 15.8 °C 7.3 °C 1013.8 hPa South 5.8 km/h 9.5 km/h 57% 0.0 mm CLR
11:03 15.9 °C 7.1 °C 1013.8 hPa South 5.8 km/h 7.6 km/h 56% 0.0 mm CLR
11:08 16.1 °C 7.3 °C 1013.8 hPa SW 5.8 km/h 5.8 km/h 56% 0.0 mm CLR
11:13 16.3 °C 7.2 °C 1013.8 hPa SSW 5.8 km/h 7.4 km/h 55% 0.0 mm CLR
11:18 16.7 °C 7.3 °C 1013.8 hPa SW 3.2 km/h 8.4 km/h 54% 0.0 mm CLR
11:23 16.9 °C 7.0 °C 1013.8 hPa West 3.2 km/h 7.4 km/h 52% 0.0 mm CLR
11:28 17.1 °C 6.9 °C 1013.8 hPa South 4.7 km/h 7.4 km/h 51% 0.0 mm CLR
11:33 17.2 °C 6.4 °C 1013.8 hPa NW 4.7 km/h 5.6 km/h 49% 0.0 mm CLR
11:38 17.5 °C 6.9 °C 1013.8 hPa South 3.9 km/h 7.4 km/h 50% 0.0 mm CLR
11:43 17.9 °C 7.0 °C 1013.8 hPa South 3.9 km/h 8.4 km/h 49% 0.0 mm CLR
11:48 18.1 °C 6.6 °C 1013.8 hPa SSE 5.0 km/h 7.4 km/h 47% 0.0 mm CLR
11:53 18.3 °C 6.2 °C 1013.4 hPa South 5.0 km/h 5.0 km/h 45% 0.0 mm CLR
11:58 18.7 °C 5.5 °C 1013.4 hPa SW 4.7 km/h 7.4 km/h 42% 0.0 mm CLR
12:03 18.7 °C 4.8 °C 1013.4 hPa SSW 4.7 km/h 9.3 km/h 40% 0.0 mm CLR
12:08 18.8 °C 4.9 °C 1013.4 hPa SW 4.7 km/h 5.6 km/h 40% 0.0 mm CLR
12:13 19.0 °C 5.1 °C 1013.4 hPa NW 4.7 km/h 5.6 km/h 40% 0.0 mm CLR
12:18 19.2 °C 4.5 °C 1013.4 hPa WSW 2.9 km/h 7.4 km/h 38% 0.0 mm CLR
12:23 19.5 °C 4.8 °C 1013.4 hPa SSW 2.9 km/h 7.4 km/h 38% 0.0 mm CLR
12:28 19.6 °C 4.9 °C 1013.4 hPa SSW 3.9 km/h 7.4 km/h 38% 0.0 mm CLR
12:33 19.7 °C 5.0 °C 1013.4 hPa SSW 3.9 km/h 7.4 km/h 38% 0.0 mm CLR
12:38 20.1 °C 4.9 °C 1013.1 hPa NE 3.9 km/h 3.9 km/h 37% 0.0 mm CLR
12:43 20.4 °C 4.8 °C 1013.1 hPa NW 3.9 km/h 5.6 km/h 36% 0.0 mm CLR
12:48 20.4 °C 4.8 °C 1013.1 hPa ENE 2.9 km/h 6.9 km/h 36% 0.0 mm CLR
12:53 20.5 °C 4.9 °C 1012.8 hPa WNW 2.9 km/h 3.7 km/h 36% 0.0 mm CLR
12:58 20.7 °C 5.1 °C 1012.8 hPa NW 3.2 km/h 10.0 km/h 36% 0.0 mm CLR
13:03 20.8 °C 5.2 °C 1012.8 hPa NNE 3.2 km/h 6.9 km/h 36% 0.0 mm CLR
13:08 20.9 °C 4.8 °C 1012.8 hPa WSW 4.7 km/h 5.6 km/h 35% 0.0 mm CLR
13:13 21.2 °C 5.1 °C 1012.8 hPa NNW 4.7 km/h 5.0 km/h 35% 0.0 mm CLR
13:18 21.2 °C 5.1 °C 1012.8 hPa NNW 3.2 km/h 4.7 km/h 35% 0.0 mm CLR
13:23 21.2 °C 5.1 °C 1012.8 hPa NNW 3.2 km/h 5.8 km/h 35% 0.0 mm CLR
13:28 21.2 °C 4.7 °C 1012.8 hPa NNW 3.9 km/h 3.9 km/h 34% 0.0 mm CLR
13:34 21.3 °C 4.8 °C 1012.8 hPa NNW 3.9 km/h 5.6 km/h 34% 0.0 mm CLR
13:39 21.4 °C 5.3 °C 1012.4 hPa NNW 2.9 km/h 9.3 km/h 35% 0.0 mm CLR
13:44 21.6 °C 5.5 °C 1012.4 hPa NNW 2.9 km/h 5.6 km/h 35% 0.0 mm CLR
13:49 21.9 °C 5.3 °C 1012.4 hPa NW 3.9 km/h 9.3 km/h 34% 0.0 mm CLR
13:54 21.8 °C 5.2 °C 1012.1 hPa ENE 3.9 km/h 11.1 km/h 34% 0.0 mm CLR
13:59 21.8 °C 5.2 °C 1012.1 hPa NE 5.0 km/h 5.8 km/h 34% 0.0 mm CLR
14:04 21.9 °C 5.3 °C 1012.1 hPa North 5.0 km/h 5.0 km/h 34% 0.0 mm CLR
14:08 22.2 °C 4.3 °C 1011.7 hPa SSE 3.9 km/h 9.5 km/h 31% 0.0 mm CLR
14:14 22.2 °C 4.3 °C 1011.7 hPa West 3.9 km/h 7.4 km/h 31% 0.0 mm CLR
14:19 22.5 °C 5.0 °C 1011.7 hPa WNW 5.8 km/h 9.3 km/h 32% 0.0 mm CLR
14:24 22.8 °C 4.8 °C 1011.7 hPa NNE 5.8 km/h 8.4 km/h 31% 0.0 mm CLR
14:29 22.7 °C 4.7 °C 1011.7 hPa ESE 5.0 km/h 5.6 km/h 31% 0.0 mm CLR
14:34 23.0 °C 5.4 °C 1011.7 hPa West 5.0 km/h 8.4 km/h 32% 0.0 mm CLR
14:39 23.1 °C 5.1 °C 1011.4 hPa NNW 3.9 km/h 9.3 km/h 31% 0.0 mm CLR
14:44 22.9 °C 5.3 °C 1011.4 hPa NW 3.9 km/h 5.8 km/h 32% 0.0 mm CLR
14:49 22.8 °C 4.8 °C 1011.4 hPa NW 5.8 km/h 7.4 km/h 31% 0.0 mm CLR
14:54 22.7 °C 4.7 °C 1011.4 hPa North 5.8 km/h 9.3 km/h 31% 0.0 mm CLR
14:59 22.7 °C 5.6 °C 1011.4 hPa NW 5.0 km/h 7.4 km/h 33% 0.0 mm CLR
15:04 22.8 °C 4.8 °C 1011.4 hPa NNE 5.0 km/h 7.4 km/h 31% 0.0 mm CLR
15:09 22.8 °C 4.8 °C 1011.4 hPa ENE 4.7 km/h 7.4 km/h 31% 0.0 mm CLR
15:14 22.9 °C 4.9 °C 1011.4 hPa ENE 4.7 km/h 7.4 km/h 31% 0.0 mm CLR
15:19 23.0 °C 5.4 °C 1011.4 hPa ESE 4.7 km/h 9.3 km/h 32% 0.0 mm CLR
15:24 23.2 °C 5.6 °C 1011.1 hPa ENE 4.7 km/h 8.4 km/h 32% 0.0 mm CLR
15:29 23.2 °C 5.1 °C 1011.1 hPa ESE 6.4 km/h 9.3 km/h 31% 0.0 mm CLR
15:34 23.2 °C 5.1 °C 1011.1 hPa NNE 6.4 km/h 13.0 km/h 31% 0.0 mm CLR
15:39 22.9 °C 5.3 °C 1011.1 hPa ENE 6.9 km/h 9.3 km/h 32% 0.0 mm CLR
15:44 22.9 °C 5.3 °C 1011.1 hPa SE 6.9 km/h 11.1 km/h 32% 0.0 mm CLR
15:49 22.9 °C 5.3 °C 1011.1 hPa ESE 7.6 km/h 14.8 km/h 32% 0.0 mm CLR
15:54 22.9 °C 5.3 °C 1011.1 hPa ESE 7.6 km/h 7.6 km/h 32% 0.0 mm CLR
15:59 23.0 °C 4.9 °C 1011.1 hPa NE 6.4 km/h 6.4 km/h 31% 0.0 mm CLR
16:04 22.9 °C 4.9 °C 1011.1 hPa ESE 6.4 km/h 9.3 km/h 31% 0.0 mm CLR
16:09 22.9 °C 5.3 °C 1010.7 hPa NNW 5.8 km/h 9.3 km/h 32% 0.0 mm CLR
16:14 23.2 °C 5.1 °C 1010.7 hPa WSW 5.8 km/h 7.4 km/h 31% 0.0 mm CLR
16:19 23.5 °C 5.4 °C 1010.7 hPa SE 4.7 km/h 9.3 km/h 31% 0.0 mm CLR
16:24 23.4 °C 5.3 °C 1010.7 hPa South 4.7 km/h 11.1 km/h 31% 0.0 mm CLR
16:29 23.3 °C 5.2 °C 1010.7 hPa South 6.9 km/h 14.8 km/h 31% 0.0 mm CLR
16:34 23.2 °C 5.1 °C 1010.7 hPa South 6.9 km/h 9.3 km/h 31% 0.0 mm CLR
16:39 23.3 °C 5.7 °C 1010.7 hPa SE 7.6 km/h 11.1 km/h 32% 0.0 mm CLR
16:44 23.3 °C 5.2 °C 1010.7 hPa ESE 7.6 km/h 13.0 km/h 31% 0.0 mm CLR
16:49 23.1 °C 5.1 °C 1010.7 hPa ENE 7.6 km/h 7.6 km/h 31% 0.0 mm CLR
16:54 23.1 °C 5.1 °C 1010.7 hPa ESE 7.6 km/h 13.0 km/h 31% 0.0 mm CLR
16:59 23.1 °C 5.5 °C 1010.7 hPa ESE 8.4 km/h 10.0 km/h 32% 0.0 mm CLR
17:04 23.1 °C 5.5 °C 1010.7 hPa ESE 8.4 km/h 14.8 km/h 32% 0.0 mm CLR
17:09 23.1 °C 5.5 °C 1010.7 hPa ESE 9.5 km/h 16.1 km/h 32% 0.0 mm CLR
17:14 22.8 °C 6.1 °C 1010.7 hPa ESE 9.5 km/h 20.4 km/h 34% 0.0 mm CLR
17:19 22.6 °C 6.3 °C 1010.7 hPa East 12.2 km/h 16.7 km/h 35% 0.0 mm CLR
17:24 22.7 °C 6.4 °C 1010.7 hPa SE 12.2 km/h 14.8 km/h 35% 0.0 mm CLR
17:29 22.6 °C 6.3 °C 1010.7 hPa ESE 11.1 km/h 18.5 km/h 35% 0.0 mm CLR
17:34 22.4 °C 6.6 °C 1010.7 hPa ESE 11.1 km/h 14.8 km/h 36% 0.0 mm CLR
17:39 22.5 °C 6.7 °C 1010.7 hPa ESE 11.1 km/h 13.0 km/h 36% 0.0 mm CLR
17:44 22.7 °C 6.8 °C 1010.7 hPa SE 11.1 km/h 13.0 km/h 36% 0.0 mm CLR
17:49 22.6 °C 6.8 °C 1010.7 hPa ESE 9.5 km/h 13.0 km/h 36% 0.0 mm CLR
17:54 22.6 °C 6.8 °C 1010.7 hPa ESE 9.5 km/h 13.0 km/h 36% 0.0 mm CLR
17:59 22.6 °C 6.8 °C 1010.7 hPa ESE 8.7 km/h 11.1 km/h 36% 0.0 mm CLR
18:04 22.6 °C 7.2 °C 1010.7 hPa ESE 8.7 km/h 14.8 km/h 37% 0.0 mm CLR
18:09 22.5 °C 7.8 °C 1010.7 hPa ESE 8.7 km/h 10.0 km/h 39% 0.0 mm CLR
18:14 22.4 °C 8.1 °C 1010.7 hPa ESE 8.7 km/h 11.1 km/h 40% 0.0 mm CLR
18:19 22.2 °C 8.3 °C 1010.7 hPa ESE 7.6 km/h 13.0 km/h 41% 0.0 mm CLR
18:24 22.1 °C 8.6 °C 1010.7 hPa ESE 7.6 km/h 9.3 km/h 42% 0.0 mm CLR
18:29 22.1 °C 8.9 °C 1010.7 hPa ESE 8.0 km/h 9.7 km/h 43% 0.0 mm CLR
18:34 22.0 °C 9.5 °C 1010.7 hPa ESE 7.6 km/h 11.1 km/h 45% 0.0 mm CLR
18:39 21.7 °C 9.9 °C 1010.7 hPa ESE 6.4 km/h 11.1 km/h 47% 0.0 mm CLR
18:44 21.4 °C 10.2 °C 1010.7 hPa ESE 8.0 km/h 14.5 km/h 49% 0.0 mm CLR
18:49 21.0 °C 10.5 °C 1010.7 hPa East 8.4 km/h 13.0 km/h 51% 0.0 mm CLR
18:54 20.9 °C 10.7 °C 1011.1 hPa South 8.4 km/h 8.4 km/h 52% 0.0 mm CLR
18:59 20.7 °C 10.5 °C 1011.1 hPa SSE 8.0 km/h 9.7 km/h 52% 0.0 mm CLR
19:04 20.6 °C 10.4 °C 1011.1 hPa WSW 8.4 km/h 10.0 km/h 52% 0.0 mm CLR
19:09 20.4 °C 10.5 °C 1011.1 hPa SW 6.4 km/h 14.8 km/h 53% 0.0 mm CLR
19:14 20.2 °C 10.3 °C 1011.1 hPa SW 8.0 km/h 16.1 km/h 53% 0.0 mm CLR
19:19 19.7 °C 10.1 °C 1011.1 hPa SW 8.7 km/h 14.8 km/h 54% 0.0 mm CLR
19:24 19.6 °C 10.0 °C 1011.1 hPa SW 9.7 km/h 14.5 km/h 54% 0.0 mm CLR
19:29 19.3 °C 10.1 °C 1011.1 hPa SW 8.4 km/h 16.7 km/h 55% 0.0 mm CLR
19:34 19.1 °C 9.8 °C 1011.1 hPa SSW 8.4 km/h 13.0 km/h 55% 0.0 mm CLR
19:39 18.9 °C 9.9 °C 1011.4 hPa SSW 9.7 km/h 16.1 km/h 56% 0.0 mm CLR
19:44 18.8 °C 9.8 °C 1011.4 hPa SSW 9.7 km/h 14.5 km/h 56% 0.0 mm CLR
19:49 18.6 °C 9.9 °C 1011.4 hPa SSE 9.5 km/h 9.5 km/h 57% 0.0 mm CLR
19:54 18.5 °C 9.8 °C 1011.4 hPa South 9.7 km/h 12.9 km/h 57% 0.0 mm CLR
19:59 18.4 °C 10.0 °C 1011.4 hPa South 6.9 km/h 9.5 km/h 58% 0.0 mm CLR
20:04 18.2 °C 10.1 °C 1011.4 hPa South 8.0 km/h 14.5 km/h 59% 0.0 mm CLR
20:09 18.2 °C 10.1 °C 1011.7 hPa SW 6.9 km/h 7.4 km/h 59% 0.0 mm CLR
20:14 18.1 °C 10.2 °C 1011.7 hPa SSW 6.9 km/h 7.4 km/h 60% 0.0 mm CLR
20:19 18.1 °C 10.2 °C 1011.7 hPa SW 5.8 km/h 7.4 km/h 60% 0.0 mm CLR
20:24 18.1 °C 10.4 °C 1011.7 hPa WSW 4.8 km/h 8.0 km/h 61% 0.0 mm CLR
20:25 18.1 °C 10.4 °C 1011.7 hPa NW 5.8 km/h 7.4 km/h 61% 0.0 mm CLR
20:30 18.1 °C 10.4 °C 1011.7 hPa West 4.7 km/h 5.8 km/h 61% 0.0 mm CLR
20:35 18.0 °C 10.4 °C 1011.7 hPa SSW 4.7 km/h 5.6 km/h 61% 0.0 mm CLR
20:40 17.9 °C 10.5 °C 1011.7 hPa WSW 3.9 km/h 5.8 km/h 62% 0.0 mm CLR
20:45 17.9 °C 10.5 °C 1011.7 hPa WNW 3.9 km/h 5.6 km/h 62% 0.0 mm CLR
20:50 17.8 °C 10.4 °C 1011.7 hPa NNW 3.9 km/h 7.4 km/h 62% 0.0 mm CLR
20:55 17.8 °C 10.7 °C 1011.7 hPa NNW 3.9 km/h 7.4 km/h 63% 0.0 mm CLR
21:00 17.7 °C 10.8 °C 1011.7 hPa NNW 3.9 km/h 7.4 km/h 64% 0.0 mm CLR
21:05 17.5 °C 10.8 °C 1012.1 hPa WNW 3.9 km/h 7.4 km/h 65% 0.0 mm CLR
21:10 17.4 °C 11.0 °C 1012.1 hPa West 5.8 km/h 11.1 km/h 66% 0.0 mm CLR
21:15 17.3 °C 11.1 °C 1012.1 hPa West 5.8 km/h 7.4 km/h 67% 0.0 mm CLR
21:20 17.3 °C 11.1 °C 1012.1 hPa WNW 5.8 km/h 5.8 km/h 67% 0.0 mm CLR
21:25 17.3 °C 11.1 °C 1012.1 hPa SW 5.8 km/h 9.5 km/h 67% 0.0 mm CLR
21:30 17.3 °C 11.1 °C 1012.1 hPa WSW 4.7 km/h 11.1 km/h 67% 0.0 mm CLR
21:35 17.3 °C 11.1 °C 1012.4 hPa NNE 4.7 km/h 4.7 km/h 67% 0.0 mm CLR
21:40 17.3 °C 11.3 °C 1012.4 hPa WSW 5.8 km/h 7.4 km/h 68% 0.0 mm CLR
21:45 17.2 °C 11.2 °C 1012.4 hPa WSW 5.8 km/h 9.3 km/h 68% 0.0 mm CLR
21:50 17.2 °C 11.2 °C 1012.1 hPa WSW 5.0 km/h 7.4 km/h 68% 0.0 mm CLR
21:55 17.2 °C 11.2 °C 1012.1 hPa SSW 5.0 km/h 7.4 km/h 68% 0.0 mm CLR
22:00 17.1 °C 11.2 °C 1012.1 hPa West 5.0 km/h 7.4 km/h 68% 0.0 mm CLR
22:05 17.1 °C 11.4 °C 1012.1 hPa West 5.0 km/h 11.1 km/h 69% 0.0 mm CLR
22:10 17.1 °C 11.4 °C 1012.1 hPa SW 5.8 km/h 7.4 km/h 69% 0.0 mm CLR
22:15 17.0 °C 11.3 °C 1012.1 hPa SW 5.8 km/h 9.3 km/h 69% 0.0 mm CLR
22:20 16.9 °C 11.2 °C 1012.1 hPa WSW 6.4 km/h 9.3 km/h 69% 0.0 mm CLR
22:25 16.9 °C 11.4 °C 1012.1 hPa SSW 6.4 km/h 7.4 km/h 70% 0.0 mm CLR
22:30 16.8 °C 11.5 °C 1012.1 hPa SW 6.4 km/h 10.3 km/h 71% 0.0 mm CLR
22:35 16.6 °C 11.3 °C 1012.1 hPa SSW 6.4 km/h 10.3 km/h 71% 0.0 mm CLR
22:40 16.6 °C 11.6 °C 1012.1 hPa SSW 6.4 km/h 7.4 km/h 72% 0.0 mm CLR
22:45 16.5 °C 11.4 °C 1012.1 hPa WSW 6.4 km/h 7.4 km/h 72% 0.0 mm CLR
22:50 16.5 °C 11.4 °C 1012.4 hPa WSW 5.0 km/h 5.6 km/h 72% 0.0 mm CLR
22:55 16.5 °C 11.4 °C 1012.4 hPa SSW 5.0 km/h 5.0 km/h 72% 0.0 mm CLR
23:00 16.5 °C 11.4 °C 1012.4 hPa SE 3.2 km/h 4.7 km/h 72% 0.0 mm CLR
23:05 16.5 °C 11.4 °C 1012.4 hPa SE 3.2 km/h 5.8 km/h 72% 0.0 mm CLR
23:10 16.5 °C 11.4 °C 1012.4 hPa SE 3.9 km/h 5.0 km/h 72% 0.0 mm CLR
23:15 16.4 °C 11.3 °C 1012.4 hPa SE 3.9 km/h 3.9 km/h 72% 0.0 mm CLR
23:20 16.3 °C 11.4 °C 1012.4 hPa ESE 3.2 km/h 7.4 km/h 73% 0.0 mm CLR
23:25 16.2 °C 11.6 °C 1012.4 hPa ESE 3.2 km/h 3.7 km/h 74% 0.0 mm CLR
23:30 16.2 °C 11.6 °C 1012.4 hPa SE 3.2 km/h 4.7 km/h 74% 0.0 mm CLR
23:35 16.2 °C 11.6 °C 1012.4 hPa SE 3.2 km/h 5.6 km/h 74% 0.0 mm CLR
23:40 16.2 °C 11.6 °C 1012.4 hPa SE 3.2 km/h 4.7 km/h 74% 0.0 mm CLR
23:45 16.1 °C 11.4 °C 1012.4 hPa SE 3.2 km/h 5.6 km/h 74% 0.0 mm CLR
23:50 16.1 °C 11.4 °C 1012.4 hPa East 3.2 km/h 3.7 km/h 74% 0.0 mm CLR
23:55 16.1 °C 11.4 °C 1012.4 hPa SSW 3.2 km/h 7.4 km/h 74% 0.0 mm CLR
Murcia-Puente Tocinos, España
Compliments of Weather Underground - 2.75 mb

La estación de MeteoMurcia.com, publica sus datos en los siguientes proyectos:

Meteoclimatic www.awekas.at

W3Counter
Web Analytics